sensor_id;sensor_type;location;lat;lon;timestamp;temperature;humidity
15906;DHT22;8051;50.820;4.884;2022-12-18T00:00:04;-6.30;99.90
15906;DHT22;8051;50.820;4.884;2022-12-18T00:02:32;-6.40;99.90
15906;DHT22;8051;50.820;4.884;2022-12-18T00:04:59;-6.50;99.90
15906;DHT22;8051;50.820;4.884;2022-12-18T00:07:27;-6.50;99.90
15906;DHT22;8051;50.820;4.884;2022-12-18T00:09:54;-6.50;99.90
15906;DHT22;8051;50.820;4.884;2022-12-18T00:12:21;-6.60;99.90
15906;DHT22;8051;50.820;4.884;2022-12-18T00:14:50;-6.60;99.90
15906;DHT22;8051;50.820;4.884;2022-12-18T00:17:18;-6.60;99.90
15906;DHT22;8051;50.820;4.884;2022-12-18T00:19:45;-6.60;99.90
15906;DHT22;8051;50.820;4.884;2022-12-18T00:22:12;-6.70;99.90
15906;DHT22;8051;50.820;4.884;2022-12-18T00:24:44;-6.70;99.90
15906;DHT22;8051;50.820;4.884;2022-12-18T00:27:12;-6.70;99.90
15906;DHT22;8051;50.820;4.884;2022-12-18T00:29:39;-6.60;99.90
15906;DHT22;8051;50.820;4.884;2022-12-18T00:32:08;-6.60;99.90
15906;DHT22;8051;50.820;4.884;2022-12-18T00:34:36;-6.60;99.90
15906;DHT22;8051;50.820;4.884;2022-12-18T00:37:03;-6.50;99.90
15906;DHT22;8051;50.820;4.884;2022-12-18T00:39:30;-6.40;99.90
15906;DHT22;8051;50.820;4.884;2022-12-18T00:41:57;-6.40;99.90
15906;DHT22;8051;50.820;4.884;2022-12-18T00:44:42;-6.30;99.90
15906;DHT22;8051;50.820;4.884;2022-12-18T00:47:11;-6.30;99.90
15906;DHT22;8051;50.820;4.884;2022-12-18T00:49:38;-6.30;99.90
15906;DHT22;8051;50.820;4.884;2022-12-18T00:52:06;-6.40;99.90
15906;DHT22;8051;50.820;4.884;2022-12-18T00:54:33;-6.50;99.90
15906;DHT22;8051;50.820;4.884;2022-12-18T00:57:00;-6.50;99.90
15906;DHT22;8051;50.820;4.884;2022-12-18T00:59:28;-6.50;99.90
15906;DHT22;8051;50.820;4.884;2022-12-18T01:01:56;-6.60;99.90
15906;DHT22;8051;50.820;4.884;2022-12-18T01:04:25;-6.60;99.90
15906;DHT22;8051;50.820;4.884;2022-12-18T01:06:52;-6.70;99.90
15906;DHT22;8051;50.820;4.884;2022-12-18T01:09:20;-6.70;99.90
15906;DHT22;8051;50.820;4.884;2022-12-18T01:11:48;-6.80;99.90
15906;DHT22;8051;50.820;4.884;2022-12-18T01:14:16;-6.80;99.90
15906;DHT22;8051;50.820;4.884;2022-12-18T01:16:43;-6.80;99.90
15906;DHT22;8051;50.820;4.884;2022-12-18T01:19:11;-6.80;99.90
15906;DHT22;8051;50.820;4.884;2022-12-18T01:21:40;-6.70;99.90
15906;DHT22;8051;50.820;4.884;2022-12-18T01:24:10;-6.70;99.90
15906;DHT22;8051;50.820;4.884;2022-12-18T01:26:38;-6.80;99.90
15906;DHT22;8051;50.820;4.884;2022-12-18T01:29:06;-6.80;99.90
15906;DHT22;8051;50.820;4.884;2022-12-18T01:31:34;-6.80;99.90
15906;DHT22;8051;50.820;4.884;2022-12-18T01:34:02;-6.90;99.90
15906;DHT22;8051;50.820;4.884;2022-12-18T01:36:31;-6.90;99.90
15906;DHT22;8051;50.820;4.884;2022-12-18T01:39:03;-6.90;99.90
15906;DHT22;8051;50.820;4.884;2022-12-18T01:41:31;-6.90;99.90
15906;DHT22;8051;50.820;4.884;2022-12-18T01:47:32;-6.90;99.90
15906;DHT22;8051;50.820;4.884;2022-12-18T01:50:03;-6.90;99.90
15906;DHT22;8051;50.820;4.884;2022-12-18T01:52:32;-6.90;99.90
15906;DHT22;8051;50.820;4.884;2022-12-18T01:55:03;-6.90;99.90
15906;DHT22;8051;50.820;4.884;2022-12-18T01:57:32;-6.90;99.90
15906;DHT22;8051;50.820;4.884;2022-12-18T02:00:03;-6.80;99.90
15906;DHT22;8051;50.820;4.884;2022-12-18T02:02:31;-6.80;99.90
15906;DHT22;8051;50.820;4.884;2022-12-18T02:04:59;-6.70;99.90
15906;DHT22;8051;50.820;4.884;2022-12-18T02:07:35;-6.60;99.90
15906;DHT22;8051;50.820;4.884;2022-12-18T02:10:13;-6.60;99.90
15906;DHT22;8051;50.820;4.884;2022-12-18T02:12:48;-6.50;99.90
15906;DHT22;8051;50.820;4.884;2022-12-18T02:15:22;-6.40;99.90
15906;DHT22;8051;50.820;4.884;2022-12-18T02:17:55;-6.50;99.90
15906;DHT22;8051;50.820;4.884;2022-12-18T02:20:31;-6.40;99.90
15906;DHT22;8051;50.820;4.884;2022-12-18T02:23:11;-6.50;99.90
15906;DHT22;8051;50.820;4.884;2022-12-18T02:25:57;-6.40;99.90
15906;DHT22;8051;50.820;4.884;2022-12-18T02:28:31;-6.40;99.90
15906;DHT22;8051;50.820;4.884;2022-12-18T02:31:04;-6.40;99.90
15906;DHT22;8051;50.820;4.884;2022-12-18T02:33:33;-6.40;99.90
15906;DHT22;8051;50.820;4.884;2022-12-18T02:36:03;-6.40;99.90
15906;DHT22;8051;50.820;4.884;2022-12-18T02:38:31;-6.40;99.90
15906;DHT22;8051;50.820;4.884;2022-12-18T02:41:02;-6.40;99.90
15906;DHT22;8051;50.820;4.884;2022-12-18T02:43:30;-6.40;99.90
15906;DHT22;8051;50.820;4.884;2022-12-18T02:45:59;-6.50;99.90
15906;DHT22;8051;50.820;4.884;2022-12-18T02:48:29;-6.50;99.90
15906;DHT22;8051;50.820;4.884;2022-12-18T02:51:03;-6.50;99.90
15906;DHT22;8051;50.820;4.884;2022-12-18T02:53:42;-6.50;99.90
15906;DHT22;8051;50.820;4.884;2022-12-18T02:56:16;-6.60;99.90
15906;DHT22;8051;50.820;4.884;2022-12-18T02:58:55;-6.60;99.90
15906;DHT22;8051;50.820;4.884;2022-12-18T03:01:30;-6.70;99.90
15906;DHT22;8051;50.820;4.884;2022-12-18T03:04:03;-6.80;99.90
15906;DHT22;8051;50.820;4.884;2022-12-18T03:06:35;-6.80;99.90
15906;DHT22;8051;50.820;4.884;2022-12-18T03:09:07;-6.80;99.90
15906;DHT22;8051;50.820;4.884;2022-12-18T03:11:41;-6.90;99.90
15906;DHT22;8051;50.820;4.884;2022-12-18T03:14:29;-6.90;99.90
15906;DHT22;8051;50.820;4.884;2022-12-18T03:17:00;-7.00;99.90
15906;DHT22;8051;50.820;4.884;2022-12-18T03:19:32;-7.00;99.90
15906;DHT22;8051;50.820;4.884;2022-12-18T03:22:02;-7.00;99.90
15906;DHT22;8051;50.820;4.884;2022-12-18T03:24:31;-7.10;99.90
15906;DHT22;8051;50.820;4.884;2022-12-18T03:27:03;-7.10;99.90
15906;DHT22;8051;50.820;4.884;2022-12-18T03:29:36;-7.00;99.90
15906;DHT22;8051;50.820;4.884;2022-12-18T03:32:07;-7.00;99.90
15906;DHT22;8051;50.820;4.884;2022-12-18T03:34:39;-7.00;99.90
15906;DHT22;8051;50.820;4.884;2022-12-18T03:37:07;-7.10;99.90
15906;DHT22;8051;50.820;4.884;2022-12-18T03:39:35;-7.20;99.90
15906;DHT22;8051;50.820;4.884;2022-12-18T03:42:08;-7.20;99.90
15906;DHT22;8051;50.820;4.884;2022-12-18T03:44:43;-7.30;99.90
15906;DHT22;8051;50.820;4.884;2022-12-18T03:47:15;-7.30;99.90
15906;DHT22;8051;50.820;4.884;2022-12-18T03:49:47;-7.30;99.90
15906;DHT22;8051;50.820;4.884;2022-12-18T03:52:20;-7.20;99.90
15906;DHT22;8051;50.820;4.884;2022-12-18T03:54:51;-7.20;99.90
15906;DHT22;8051;50.820;4.884;2022-12-18T03:57:22;-7.20;99.90
15906;DHT22;8051;50.820;4.884;2022-12-18T03:59:54;-7.30;99.90
15906;DHT22;8051;50.820;4.884;2022-12-18T04:02:23;-7.30;99.90
15906;DHT22;8051;50.820;4.884;2022-12-18T04:04:53;-7.40;99.90
15906;DHT22;8051;50.820;4.884;2022-12-18T04:07:22;-7.40;99.90
15906;DHT22;8051;50.820;4.884;2022-12-18T04:09:52;-7.40;99.90
15906;DHT22;8051;50.820;4.884;2022-12-18T04:12:24;-7.40;99.90
15906;DHT22;8051;50.820;4.884;2022-12-18T04:14:52;-7.40;99.90
15906;DHT22;8051;50.820;4.884;2022-12-18T04:17:19;-7.40;99.90
15906;DHT22;8051;50.820;4.884;2022-12-18T04:19:47;-7.40;99.90
15906;DHT22;8051;50.820;4.884;2022-12-18T04:22:14;-7.40;99.90
15906;DHT22;8051;50.820;4.884;2022-12-18T04:24:42;-7.30;99.90
15906;DHT22;8051;50.820;4.884;2022-12-18T04:27:09;-7.20;99.90
15906;DHT22;8051;50.820;4.884;2022-12-18T04:29:38;-7.10;99.90
15906;DHT22;8051;50.820;4.884;2022-12-18T04:32:06;-7.10;99.90
15906;DHT22;8051;50.820;4.884;2022-12-18T04:34:34;-7.10;99.90
15906;DHT22;8051;50.820;4.884;2022-12-18T04:37:01;-7.20;99.90
15906;DHT22;8051;50.820;4.884;2022-12-18T04:39:28;-7.20;99.90
15906;DHT22;8051;50.820;4.884;2022-12-18T04:41:56;-7.20;99.90
15906;DHT22;8051;50.820;4.884;2022-12-18T04:44:26;-7.20;99.90
15906;DHT22;8051;50.820;4.884;2022-12-18T04:46:55;-7.20;99.90
15906;DHT22;8051;50.820;4.884;2022-12-18T04:49:23;-7.20;99.90
15906;DHT22;8051;50.820;4.884;2022-12-18T04:51:50;-7.20;99.90
15906;DHT22;8051;50.820;4.884;2022-12-18T04:54:18;-7.10;99.90
15906;DHT22;8051;50.820;4.884;2022-12-18T04:56:46;-7.10;99.90
15906;DHT22;8051;50.820;4.884;2022-12-18T04:59:14;-7.20;99.90
15906;DHT22;8051;50.820;4.884;2022-12-18T05:01:42;-7.20;99.90
15906;DHT22;8051;50.820;4.884;2022-12-18T05:04:10;-7.30;99.90
15906;DHT22;8051;50.820;4.884;2022-12-18T05:06:38;-7.30;99.90
15906;DHT22;8051;50.820;4.884;2022-12-18T05:09:05;-7.30;99.90
15906;DHT22;8051;50.820;4.884;2022-12-18T05:11:36;-7.40;99.90
15906;DHT22;8051;50.820;4.884;2022-12-18T05:14:03;-7.50;99.90
15906;DHT22;8051;50.820;4.884;2022-12-18T05:16:31;-7.50;99.90
15906;DHT22;8051;50.820;4.884;2022-12-18T05:18:58;-7.50;99.90
15906;DHT22;8051;50.820;4.884;2022-12-18T05:21:27;-7.50;99.90
15906;DHT22;8051;50.820;4.884;2022-12-18T05:23:54;-7.50;99.90
15906;DHT22;8051;50.820;4.884;2022-12-18T05:26:22;-7.60;99.90
15906;DHT22;8051;50.820;4.884;2022-12-18T05:28:49;-7.50;99.90
15906;DHT22;8051;50.820;4.884;2022-12-18T05:31:17;-7.50;99.90
15906;DHT22;8051;50.820;4.884;2022-12-18T05:33:44;-7.50;99.90
15906;DHT22;8051;50.820;4.884;2022-12-18T05:36:12;-7.50;99.90
15906;DHT22;8051;50.820;4.884;2022-12-18T05:38:41;-7.50;99.90
15906;DHT22;8051;50.820;4.884;2022-12-18T05:41:09;-7.50;99.90
15906;DHT22;8051;50.820;4.884;2022-12-18T05:43:37;-7.50;99.90
15906;DHT22;8051;50.820;4.884;2022-12-18T05:46:05;-7.60;99.90
15906;DHT22;8051;50.820;4.884;2022-12-18T05:48:33;-7.60;99.90
15906;DHT22;8051;50.820;4.884;2022-12-18T05:51:05;-7.70;99.90
15906;DHT22;8051;50.820;4.884;2022-12-18T05:53:33;-7.70;99.90
15906;DHT22;8051;50.820;4.884;2022-12-18T05:56:07;-7.70;99.90
15906;DHT22;8051;50.820;4.884;2022-12-18T05:58:35;-7.70;99.90
15906;DHT22;8051;50.820;4.884;2022-12-18T06:01:08;-7.70;99.90
15906;DHT22;8051;50.820;4.884;2022-12-18T06:03:36;-7.70;99.90
15906;DHT22;8051;50.820;4.884;2022-12-18T06:06:11;-7.80;99.90
15906;DHT22;8051;50.820;4.884;2022-12-18T06:08:39;-7.80;99.90
15906;DHT22;8051;50.820;4.884;2022-12-18T06:11:08;-7.80;99.90
15906;DHT22;8051;50.820;4.884;2022-12-18T06:13:35;-7.80;99.90
15906;DHT22;8051;50.820;4.884;2022-12-18T06:16:04;-7.80;99.90
15906;DHT22;8051;50.820;4.884;2022-12-18T06:18:32;-7.80;99.90
15906;DHT22;8051;50.820;4.884;2022-12-18T06:21:00;-7.80;99.90
15906;DHT22;8051;50.820;4.884;2022-12-18T06:23:27;-7.80;99.90
15906;DHT22;8051;50.820;4.884;2022-12-18T06:25:55;-7.90;99.90
15906;DHT22;8051;50.820;4.884;2022-12-18T06:28:23;-7.90;99.90
15906;DHT22;8051;50.820;4.884;2022-12-18T06:30:51;-8.00;99.90
15906;DHT22;8051;50.820;4.884;2022-12-18T06:33:18;-8.00;99.90
15906;DHT22;8051;50.820;4.884;2022-12-18T06:35:46;-8.00;99.90
15906;DHT22;8051;50.820;4.884;2022-12-18T06:38:13;-8.10;99.90
15906;DHT22;8051;50.820;4.884;2022-12-18T06:40:44;-8.10;99.90
15906;DHT22;8051;50.820;4.884;2022-12-18T06:43:11;-8.10;99.90
15906;DHT22;8051;50.820;4.884;2022-12-18T06:45:40;-8.10;99.90
15906;DHT22;8051;50.820;4.884;2022-12-18T06:48:08;-8.10;99.90
15906;DHT22;8051;50.820;4.884;2022-12-18T06:50:35;-8.10;99.90
15906;DHT22;8051;50.820;4.884;2022-12-18T06:53:02;-8.10;99.90
15906;DHT22;8051;50.820;4.884;2022-12-18T06:55:30;-8.10;99.90
15906;DHT22;8051;50.820;4.884;2022-12-18T06:57:58;-8.10;99.90
15906;DHT22;8051;50.820;4.884;2022-12-18T07:00:25;-8.10;99.90
15906;DHT22;8051;50.820;4.884;2022-12-18T07:02:54;-8.10;99.90
15906;DHT22;8051;50.820;4.884;2022-12-18T07:05:22;-8.00;99.90
15906;DHT22;8051;50.820;4.884;2022-12-18T07:07:49;-8.00;99.90
15906;DHT22;8051;50.820;4.884;2022-12-18T07:10:17;-8.00;99.90
15906;DHT22;8051;50.820;4.884;2022-12-18T07:12:44;-8.00;99.90
15906;DHT22;8051;50.820;4.884;2022-12-18T07:15:12;-8.00;99.90
15906;DHT22;8051;50.820;4.884;2022-12-18T07:17:42;-8.00;99.90
15906;DHT22;8051;50.820;4.884;2022-12-18T07:20:11;-8.00;99.90
15906;DHT22;8051;50.820;4.884;2022-12-18T07:22:38;-7.90;99.90
15906;DHT22;8051;50.820;4.884;2022-12-18T07:25:07;-7.90;99.90
15906;DHT22;8051;50.820;4.884;2022-12-18T07:27:35;-7.90;99.90
15906;DHT22;8051;50.820;4.884;2022-12-18T07:30:03;-7.80;99.90
15906;DHT22;8051;50.820;4.884;2022-12-18T07:32:30;-7.70;99.90
15906;DHT22;8051;50.820;4.884;2022-12-18T07:34:58;-7.70;99.90
15906;DHT22;8051;50.820;4.884;2022-12-18T07:37:28;-7.70;99.90
15906;DHT22;8051;50.820;4.884;2022-12-18T07:39:55;-7.60;99.90
15906;DHT22;8051;50.820;4.884;2022-12-18T07:42:23;-7.60;99.90
15906;DHT22;8051;50.820;4.884;2022-12-18T07:44:59;-7.60;99.90
15906;DHT22;8051;50.820;4.884;2022-12-18T07:47:27;-7.60;99.90
15906;DHT22;8051;50.820;4.884;2022-12-18T07:49:55;-7.70;99.90
15906;DHT22;8051;50.820;4.884;2022-12-18T07:52:22;-7.70;99.90
15906;DHT22;8051;50.820;4.884;2022-12-18T07:54:54;-7.70;99.90
15906;DHT22;8051;50.820;4.884;2022-12-18T07:57:21;-7.70;99.90
15906;DHT22;8051;50.820;4.884;2022-12-18T07:59:48;-7.70;99.90
15906;DHT22;8051;50.820;4.884;2022-12-18T08:02:16;-7.70;99.90
15906;DHT22;8051;50.820;4.884;2022-12-18T08:04:43;-7.70;99.90
15906;DHT22;8051;50.820;4.884;2022-12-18T08:07:11;-7.70;99.90
15906;DHT22;8051;50.820;4.884;2022-12-18T08:09:38;-7.60;99.90
15906;DHT22;8051;50.820;4.884;2022-12-18T08:12:07;-7.60;99.90
15906;DHT22;8051;50.820;4.884;2022-12-18T08:14:34;-7.60;99.90
15906;DHT22;8051;50.820;4.884;2022-12-18T08:17:02;-7.50;99.90
15906;DHT22;8051;50.820;4.884;2022-12-18T08:19:29;-7.50;99.90
15906;DHT22;8051;50.820;4.884;2022-12-18T08:21:57;-7.50;99.90
15906;DHT22;8051;50.820;4.884;2022-12-18T08:24:24;-7.40;99.90
15906;DHT22;8051;50.820;4.884;2022-12-18T08:26:52;-7.30;99.90
15906;DHT22;8051;50.820;4.884;2022-12-18T08:29:21;-7.20;99.90
15906;DHT22;8051;50.820;4.884;2022-12-18T08:31:48;-7.10;99.90
15906;DHT22;8051;50.820;4.884;2022-12-18T08:34:16;-7.00;99.90
15906;DHT22;8051;50.820;4.884;2022-12-18T08:36:43;-6.90;99.90
15906;DHT22;8051;50.820;4.884;2022-12-18T08:39:10;-6.80;99.90
15906;DHT22;8051;50.820;4.884;2022-12-18T08:41:38;-6.70;99.90
15906;DHT22;8051;50.820;4.884;2022-12-18T08:44:07;-6.60;99.90
15906;DHT22;8051;50.820;4.884;2022-12-18T08:46:53;-6.50;99.90
15906;DHT22;8051;50.820;4.884;2022-12-18T08:49:20;-6.30;99.90
15906;DHT22;8051;50.820;4.884;2022-12-18T08:51:47;-6.20;99.90
15906;DHT22;8051;50.820;4.884;2022-12-18T08:54:15;-6.20;99.90
15906;DHT22;8051;50.820;4.884;2022-12-18T08:56:42;-6.10;99.90
15906;DHT22;8051;50.820;4.884;2022-12-18T08:59:10;-6.00;99.90
15906;DHT22;8051;50.820;4.884;2022-12-18T09:01:37;-6.00;99.90
15906;DHT22;8051;50.820;4.884;2022-12-18T09:04:07;-5.90;99.90
15906;DHT22;8051;50.820;4.884;2022-12-18T09:06:34;-5.80;99.90
15906;DHT22;8051;50.820;4.884;2022-12-18T09:09:02;-5.70;99.90
15906;DHT22;8051;50.820;4.884;2022-12-18T09:11:31;-5.60;99.90
15906;DHT22;8051;50.820;4.884;2022-12-18T09:14:00;-5.50;99.90
15906;DHT22;8051;50.820;4.884;2022-12-18T09:16:28;-5.40;99.90
15906;DHT22;8051;50.820;4.884;2022-12-18T09:18:57;-5.30;99.90
15906;DHT22;8051;50.820;4.884;2022-12-18T09:21:30;-5.20;99.90
15906;DHT22;8051;50.820;4.884;2022-12-18T09:23:58;-5.10;99.90
15906;DHT22;8051;50.820;4.884;2022-12-18T09:26:26;-4.90;99.90
15906;DHT22;8051;50.820;4.884;2022-12-18T09:28:53;-4.80;99.90
15906;DHT22;8051;50.820;4.884;2022-12-18T09:31:23;-4.70;99.90
15906;DHT22;8051;50.820;4.884;2022-12-18T09:33:51;-4.60;99.90
15906;DHT22;8051;50.820;4.884;2022-12-18T09:36:19;-4.50;99.90
15906;DHT22;8051;50.820;4.884;2022-12-18T09:38:48;-4.40;99.90
15906;DHT22;8051;50.820;4.884;2022-12-18T09:41:32;-4.20;99.90
15906;DHT22;8051;50.820;4.884;2022-12-18T09:44:04;-4.10;99.90
15906;DHT22;8051;50.820;4.884;2022-12-18T09:46:35;-4.00;99.90
15906;DHT22;8051;50.820;4.884;2022-12-18T09:49:07;-3.90;99.90
15906;DHT22;8051;50.820;4.884;2022-12-18T09:51:42;-3.80;99.90
15906;DHT22;8051;50.820;4.884;2022-12-18T09:54:22;-3.70;99.90
15906;DHT22;8051;50.820;4.884;2022-12-18T09:56:51;-3.60;99.90
15906;DHT22;8051;50.820;4.884;2022-12-18T09:59:25;-3.50;99.90
15906;DHT22;8051;50.820;4.884;2022-12-18T10:01:53;-3.40;99.90
15906;DHT22;8051;50.820;4.884;2022-12-18T10:04:21;-3.30;99.90
15906;DHT22;8051;50.820;4.884;2022-12-18T10:06:54;-3.30;99.90
15906;DHT22;8051;50.820;4.884;2022-12-18T10:09:30;-3.30;99.90
15906;DHT22;8051;50.820;4.884;2022-12-18T10:12:05;-3.30;99.90
15906;DHT22;8051;50.820;4.884;2022-12-18T10:14:39;-3.30;99.90
15906;DHT22;8051;50.820;4.884;2022-12-18T10:17:16;-3.20;99.90
15906;DHT22;8051;50.820;4.884;2022-12-18T10:19:49;-3.10;99.90
15906;DHT22;8051;50.820;4.884;2022-12-18T10:22:25;-3.00;99.90
15906;DHT22;8051;50.820;4.884;2022-12-18T10:25:00;-2.90;99.90
15906;DHT22;8051;50.820;4.884;2022-12-18T10:27:30;-2.80;99.90
15906;DHT22;8051;50.820;4.884;2022-12-18T10:29:58;-2.80;99.90
15906;DHT22;8051;50.820;4.884;2022-12-18T10:32:29;-2.80;99.90
15906;DHT22;8051;50.820;4.884;2022-12-18T10:34:58;-2.80;99.90
15906;DHT22;8051;50.820;4.884;2022-12-18T10:37:27;-2.70;99.90
15906;DHT22;8051;50.820;4.884;2022-12-18T10:40:11;-2.70;99.90
15906;DHT22;8051;50.820;4.884;2022-12-18T10:42:39;-2.70;99.90
15906;DHT22;8051;50.820;4.884;2022-12-18T10:45:11;-2.60;99.90
15906;DHT22;8051;50.820;4.884;2022-12-18T10:47:42;-2.50;99.90
15906;DHT22;8051;50.820;4.884;2022-12-18T10:50:19;-2.60;99.90
15906;DHT22;8051;50.820;4.884;2022-12-18T10:52:55;-2.60;99.90
15906;DHT22;8051;50.820;4.884;2022-12-18T10:55:30;-2.60;99.90
15906;DHT22;8051;50.820;4.884;2022-12-18T10:58:15;-2.50;99.90
15906;DHT22;8051;50.820;4.884;2022-12-18T11:00:44;-2.40;99.90
15906;DHT22;8051;50.820;4.884;2022-12-18T11:03:30;-2.30;99.90
15906;DHT22;8051;50.820;4.884;2022-12-18T11:06:07;-2.30;99.90
15906;DHT22;8051;50.820;4.884;2022-12-18T11:08:36;-2.10;99.90
15906;DHT22;8051;50.820;4.884;2022-12-18T11:11:14;-2.10;99.90
15906;DHT22;8051;50.820;4.884;2022-12-18T11:13:54;-1.90;99.90
15906;DHT22;8051;50.820;4.884;2022-12-18T11:16:23;-1.80;99.90
15906;DHT22;8051;50.820;4.884;2022-12-18T11:18:51;-1.80;99.90
15906;DHT22;8051;50.820;4.884;2022-12-18T11:21:19;-1.70;99.90
15906;DHT22;8051;50.820;4.884;2022-12-18T11:23:49;-1.60;99.90
15906;DHT22;8051;50.820;4.884;2022-12-18T11:26:19;-1.50;99.90
15906;DHT22;8051;50.820;4.884;2022-12-18T11:28:50;-1.40;99.90
15906;DHT22;8051;50.820;4.884;2022-12-18T11:31:21;-1.30;99.90
15906;DHT22;8051;50.820;4.884;2022-12-18T11:34:10;-1.20;99.90
15906;DHT22;8051;50.820;4.884;2022-12-18T11:36:42;-1.20;99.90
15906;DHT22;8051;50.820;4.884;2022-12-18T11:39:15;-1.10;99.90
15906;DHT22;8051;50.820;4.884;2022-12-18T11:41:50;-1.00;99.90
15906;DHT22;8051;50.820;4.884;2022-12-18T11:44:43;-0.90;99.90
15906;DHT22;8051;50.820;4.884;2022-12-18T11:47:21;-0.90;99.90
15906;DHT22;8051;50.820;4.884;2022-12-18T11:49:51;-1.00;99.90
15906;DHT22;8051;50.820;4.884;2022-12-18T11:52:23;-0.90;99.90
15906;DHT22;8051;50.820;4.884;2022-12-18T11:54:52;-0.90;99.90
15906;DHT22;8051;50.820;4.884;2022-12-18T11:57:30;-0.80;99.90
15906;DHT22;8051;50.820;4.884;2022-12-18T12:00:07;-0.80;99.90
15906;DHT22;8051;50.820;4.884;2022-12-18T12:03:01;-0.70;99.90
15906;DHT22;8051;50.820;4.884;2022-12-18T12:05:47;-0.70;99.90
15906;DHT22;8051;50.820;4.884;2022-12-18T12:08:26;-0.60;99.90
15906;DHT22;8051;50.820;4.884;2022-12-18T12:11:01;-0.60;99.90
15906;DHT22;8051;50.820;4.884;2022-12-18T12:13:42;-0.50;99.90
15906;DHT22;8051;50.820;4.884;2022-12-18T12:16:17;-0.40;99.90
15906;DHT22;8051;50.820;4.884;2022-12-18T12:19:02;-0.40;99.90
15906;DHT22;8051;50.820;4.884;2022-12-18T12:21:36;-0.30;99.90
15906;DHT22;8051;50.820;4.884;2022-12-18T12:24:18;-0.20;99.90
15906;DHT22;8051;50.820;4.884;2022-12-18T12:26:55;-0.20;99.90
15906;DHT22;8051;50.820;4.884;2022-12-18T12:29:37;-0.10;99.90
15906;DHT22;8051;50.820;4.884;2022-12-18T12:32:19;-0.10;99.90
15906;DHT22;8051;50.820;4.884;2022-12-18T12:34:55;0.00;99.90
15906;DHT22;8051;50.820;4.884;2022-12-18T12:37:32;0.00;99.90
15906;DHT22;8051;50.820;4.884;2022-12-18T12:40:04;0.10;99.90
15906;DHT22;8051;50.820;4.884;2022-12-18T12:42:35;0.10;99.90
15906;DHT22;8051;50.820;4.884;2022-12-18T12:45:28;0.10;99.90
15906;DHT22;8051;50.820;4.884;2022-12-18T12:47:58;0.20;99.90
15906;DHT22;8051;50.820;4.884;2022-12-18T12:50:26;0.20;99.90
15906;DHT22;8051;50.820;4.884;2022-12-18T12:52:56;0.20;99.90
15906;DHT22;8051;50.820;4.884;2022-12-18T12:55:26;0.20;99.90
15906;DHT22;8051;50.820;4.884;2022-12-18T12:58:02;0.20;99.90
15906;DHT22;8051;50.820;4.884;2022-12-18T13:00:41;0.20;99.90
15906;DHT22;8051;50.820;4.884;2022-12-18T13:03:18;0.30;99.90
15906;DHT22;8051;50.820;4.884;2022-12-18T13:05:54;0.30;99.90
15906;DHT22;8051;50.820;4.884;2022-12-18T13:08:24;0.30;99.90
15906;DHT22;8051;50.820;4.884;2022-12-18T13:10:52;0.40;99.90
15906;DHT22;8051;50.820;4.884;2022-12-18T13:13:50;0.30;99.90
15906;DHT22;8051;50.820;4.884;2022-12-18T13:16:21;0.40;99.90
15906;DHT22;8051;50.820;4.884;2022-12-18T13:18:50;0.40;99.90
15906;DHT22;8051;50.820;4.884;2022-12-18T13:21:23;0.40;99.90
15906;DHT22;8051;50.820;4.884;2022-12-18T13:23:53;0.50;99.90
15906;DHT22;8051;50.820;4.884;2022-12-18T13:26:32;0.50;99.90
15906;DHT22;8051;50.820;4.884;2022-12-18T13:29:01;0.50;99.90
15906;DHT22;8051;50.820;4.884;2022-12-18T13:34:37;0.40;99.90
15906;DHT22;8051;50.820;4.884;2022-12-18T13:40:54;0.40;99.90
15906;DHT22;8051;50.820;4.884;2022-12-18T13:43:31;0.40;99.90
15906;DHT22;8051;50.820;4.884;2022-12-18T13:46:03;0.30;99.90
15906;DHT22;8051;50.820;4.884;2022-12-18T13:48:33;0.30;99.90
15906;DHT22;8051;50.820;4.884;2022-12-18T13:51:05;0.30;99.90
15906;DHT22;8051;50.820;4.884;2022-12-18T13:53:39;0.30;99.90
15906;DHT22;8051;50.820;4.884;2022-12-18T13:56:09;0.20;99.90
15906;DHT22;8051;50.820;4.884;2022-12-18T13:58:42;0.20;99.90
15906;DHT22;8051;50.820;4.884;2022-12-18T14:01:22;0.10;99.90
15906;DHT22;8051;50.820;4.884;2022-12-18T14:03:49;0.10;99.90
15906;DHT22;8051;50.820;4.884;2022-12-18T14:06:19;0.10;99.90
15906;DHT22;8051;50.820;4.884;2022-12-18T14:08:47;0.10;99.90
15906;DHT22;8051;50.820;4.884;2022-12-18T14:11:20;0.10;99.90
15906;DHT22;8051;50.820;4.884;2022-12-18T14:13:49;0.00;99.90
15906;DHT22;8051;50.820;4.884;2022-12-18T14:16:17;0.00;99.90
15906;DHT22;8051;50.820;4.884;2022-12-18T14:18:46;0.00;99.90
15906;DHT22;8051;50.820;4.884;2022-12-18T14:21:21;0.00;99.90
15906;DHT22;8051;50.820;4.884;2022-12-18T14:23:49;-0.10;99.90
15906;DHT22;8051;50.820;4.884;2022-12-18T14:26:30;-0.10;99.90
15906;DHT22;8051;50.820;4.884;2022-12-18T14:29:00;-0.10;99.90
15906;DHT22;8051;50.820;4.884;2022-12-18T14:31:30;-0.10;99.90
15906;DHT22;8051;50.820;4.884;2022-12-18T14:33:57;-0.10;99.90
15906;DHT22;8051;50.820;4.884;2022-12-18T14:36:27;-0.10;99.90
15906;DHT22;8051;50.820;4.884;2022-12-18T14:38:57;-0.10;99.90
15906;DHT22;8051;50.820;4.884;2022-12-18T14:41:26;-0.10;99.90
15906;DHT22;8051;50.820;4.884;2022-12-18T14:43:54;-0.10;99.90
15906;DHT22;8051;50.820;4.884;2022-12-18T14:46:30;-0.10;99.90
15906;DHT22;8051;50.820;4.884;2022-12-18T14:49:01;-0.10;99.90
15906;DHT22;8051;50.820;4.884;2022-12-18T14:51:32;-0.10;99.90
15906;DHT22;8051;50.820;4.884;2022-12-18T14:54:01;-0.10;99.90
15906;DHT22;8051;50.820;4.884;2022-12-18T14:56:31;-0.10;99.90
15906;DHT22;8051;50.820;4.884;2022-12-18T14:59:00;-0.10;99.90
15906;DHT22;8051;50.820;4.884;2022-12-18T15:01:30;-0.10;99.90
15906;DHT22;8051;50.820;4.884;2022-12-18T15:03:59;-0.10;99.90
15906;DHT22;8051;50.820;4.884;2022-12-18T15:06:32;-0.10;99.90
15906;DHT22;8051;50.820;4.884;2022-12-18T15:09:02;-0.10;99.90
15906;DHT22;8051;50.820;4.884;2022-12-18T15:11:35;-0.10;99.90
15906;DHT22;8051;50.820;4.884;2022-12-18T15:14:22;-0.10;99.90
15906;DHT22;8051;50.820;4.884;2022-12-18T15:16:52;-0.10;99.90
15906;DHT22;8051;50.820;4.884;2022-12-18T15:19:21;-0.20;99.90
15906;DHT22;8051;50.820;4.884;2022-12-18T15:21:51;-0.20;99.90
15906;DHT22;8051;50.820;4.884;2022-12-18T15:24:21;-0.30;99.90
15906;DHT22;8051;50.820;4.884;2022-12-18T15:26:50;-0.20;99.90
15906;DHT22;8051;50.820;4.884;2022-12-18T15:29:20;-0.20;99.90
15906;DHT22;8051;50.820;4.884;2022-12-18T15:31:59;-0.20;99.90
15906;DHT22;8051;50.820;4.884;2022-12-18T15:34:27;-0.30;99.90
15906;DHT22;8051;50.820;4.884;2022-12-18T15:36:56;-0.20;99.90
15906;DHT22;8051;50.820;4.884;2022-12-18T15:39:24;-0.20;99.90
15906;DHT22;8051;50.820;4.884;2022-12-18T15:41:51;-0.30;99.90
15906;DHT22;8051;50.820;4.884;2022-12-18T15:44:36;-0.20;99.90
15906;DHT22;8051;50.820;4.884;2022-12-18T15:47:10;-0.20;99.90
15906;DHT22;8051;50.820;4.884;2022-12-18T15:49:38;-0.20;99.90
15906;DHT22;8051;50.820;4.884;2022-12-18T15:52:12;-0.20;99.90
15906;DHT22;8051;50.820;4.884;2022-12-18T15:54:51;-0.20;99.90
15906;DHT22;8051;50.820;4.884;2022-12-18T15:57:45;-0.20;99.90
15906;DHT22;8051;50.820;4.884;2022-12-18T16:00:13;-0.20;99.90
15906;DHT22;8051;50.820;4.884;2022-12-18T16:02:40;-0.20;99.90
15906;DHT22;8051;50.820;4.884;2022-12-18T16:05:14;-0.20;99.90
15906;DHT22;8051;50.820;4.884;2022-12-18T16:07:44;-0.10;99.90
15906;DHT22;8051;50.820;4.884;2022-12-18T16:10:12;-0.10;99.90
15906;DHT22;8051;50.820;4.884;2022-12-18T16:12:41;-0.10;99.90
15906;DHT22;8051;50.820;4.884;2022-12-18T16:15:11;-0.10;99.90
15906;DHT22;8051;50.820;4.884;2022-12-18T16:17:39;-0.10;99.90
15906;DHT22;8051;50.820;4.884;2022-12-18T16:20:12;-0.10;99.90